createdAt,value
2023-08-14T00:01:57.096Z,2.22
2023-08-14T00:04:23.596Z,2.67
2023-08-14T00:06:50.082Z,1.45
2023-08-14T00:09:16.680Z,1.60
2023-08-14T00:11:43.222Z,2.08
2023-08-14T00:14:09.750Z,1.92
2023-08-14T00:16:36.298Z,1.90
2023-08-14T00:19:02.979Z,3.55
2023-08-14T00:21:29.776Z,1.75
2023-08-14T00:23:56.247Z,0.98
2023-08-14T00:26:22.713Z,7.82
2023-08-14T00:28:49.207Z,2.50
2023-08-14T00:31:17.914Z,1.75
2023-08-14T00:33:44.367Z,0.93
2023-08-14T00:36:10.803Z,2.20
2023-08-14T00:38:37.221Z,3.10
2023-08-14T00:41:03.846Z,2.50
2023-08-14T00:43:30.411Z,1.92
2023-08-14T00:45:57.479Z,2.22
2023-08-14T00:48:26.140Z,1.85
2023-08-14T00:50:54.758Z,2.17
2023-08-14T00:53:21.693Z,3.97
2023-08-14T00:55:48.654Z,2.95
2023-08-14T00:58:16.240Z,3.65
2023-08-14T01:00:44.163Z,1.75
2023-08-14T01:03:11.314Z,2.80
2023-08-14T01:05:38.006Z,2.57
2023-08-14T01:08:04.695Z,2.30
2023-08-14T01:11:00.053Z,1.88
2023-08-14T01:13:47.675Z,1.92
2023-08-14T01:16:20.730Z,2.05
2023-08-14T01:18:48.671Z,2.20
2023-08-14T01:21:18.223Z,3.92
2023-08-14T01:24:07.804Z,2.67
2023-08-14T01:26:35.590Z,2.55
2023-08-14T01:29:04.374Z,1.83
2023-08-14T01:31:31.351Z,2.27
2023-08-14T01:33:58.650Z,4.28
2023-08-14T01:36:33.760Z,1.42
2023-08-14T01:39:09.585Z,3.03
2023-08-14T01:42:19.079Z,3.58
2023-08-14T01:44:49.747Z,2.93
2023-08-14T01:47:19.631Z,2.17
2023-08-14T01:49:47.023Z,1.73
2023-08-14T01:52:13.730Z,1.85
2023-08-14T01:54:40.321Z,1.45
2023-08-14T01:57:06.867Z,1.67
2023-08-14T01:59:48.264Z,2.80
2023-08-14T02:02:15.304Z,3.22
2023-08-14T02:04:41.962Z,3.42
2023-08-14T02:07:10.824Z,2.10
2023-08-14T02:09:37.989Z,3.80
2023-08-14T02:12:04.919Z,2.83
2023-08-14T02:14:31.886Z,4.15
2023-08-14T02:16:58.468Z,1.98
2023-08-14T02:19:24.981Z,2.40
2023-08-14T02:21:51.461Z,6.40
2023-08-14T02:24:17.921Z,1.75
2023-08-14T02:26:44.394Z,3.17
2023-08-14T02:29:10.860Z,2.92
2023-08-14T02:31:37.457Z,2.45
2023-08-14T02:34:04.634Z,9.80
2023-08-14T02:36:31.078Z,5.05
2023-08-14T02:38:57.591Z,3.90
2023-08-14T02:41:24.085Z,2.47
2023-08-14T02:43:50.603Z,2.55
2023-08-14T02:46:17.313Z,2.10
2023-08-14T02:48:46.289Z,6.28
2023-08-14T02:51:12.838Z,2.30
2023-08-14T02:53:39.266Z,2.53
2023-08-14T02:56:05.760Z,2.90
2023-08-14T02:58:32.680Z,4.97
2023-08-14T03:00:59.268Z,3.55
2023-08-14T03:03:25.873Z,3.25
2023-08-14T03:05:52.486Z,2.13
2023-08-14T03:08:18.952Z,2.08
2023-08-14T03:10:45.416Z,1.70
2023-08-14T03:13:11.886Z,1.70
2023-08-14T03:15:38.410Z,4.75
2023-08-14T03:18:04.996Z,1.98
2023-08-14T03:20:31.539Z,1.63
2023-08-14T03:22:58.081Z,2.97
2023-08-14T03:25:24.668Z,2.63
2023-08-14T03:27:51.171Z,1.80
2023-08-14T03:30:17.764Z,4.05
2023-08-14T03:32:44.342Z,5.97
2023-08-14T03:35:11.109Z,2.17
2023-08-14T03:37:37.655Z,1.83
2023-08-14T03:40:04.512Z,2.70
2023-08-14T03:42:31.009Z,2.17
2023-08-14T03:44:57.494Z,2.65
2023-08-14T03:47:23.941Z,2.47
2023-08-14T03:49:50.508Z,5.78
2023-08-14T03:52:18.783Z,2.55
2023-08-14T03:54:45.472Z,3.72
2023-08-14T03:57:11.958Z,3.22
2023-08-14T03:59:38.503Z,2.83
2023-08-14T04:02:05.142Z,3.33
2023-08-14T04:04:31.624Z,2.80
2023-08-14T04:06:58.993Z,3.42
2023-08-14T04:09:25.603Z,1.50
2023-08-14T04:11:52.079Z,2.10
2023-08-14T04:14:18.537Z,1.20
2023-08-14T04:16:45.565Z,1.42
2023-08-14T04:19:15.812Z,3.67
2023-08-14T04:21:43.406Z,2.45
2023-08-14T04:24:10.583Z,2.67
2023-08-14T04:26:40.539Z,3.05
2023-08-14T04:29:08.652Z,4.63
2023-08-14T04:31:39.535Z,4.05
2023-08-14T04:34:06.639Z,4.15
2023-08-14T04:36:35.063Z,2.73
2023-08-14T04:39:02.455Z,3.70
2023-08-14T04:41:29.108Z,2.47
2023-08-14T04:43:55.916Z,2.67
2023-08-14T04:46:41.148Z,2.50
2023-08-14T04:49:15.880Z,3.17
2023-08-14T04:51:42.280Z,5.43
2023-08-14T04:54:08.921Z,3.53
2023-08-14T04:56:35.663Z,3.13
2023-08-14T04:59:02.151Z,3.30
2023-08-14T05:01:28.730Z,3.00
2023-08-14T05:03:55.266Z,2.28
2023-08-14T05:06:21.794Z,2.08
2023-08-14T05:08:48.578Z,5.65
2023-08-14T05:11:15.146Z,9.43
2023-08-14T05:13:45.373Z,4.17
2023-08-14T05:16:12.010Z,3.03
2023-08-14T05:18:38.708Z,4.20
2023-08-14T05:21:05.451Z,5.97
2023-08-14T05:23:31.901Z,3.03
2023-08-14T05:25:58.416Z,5.23
2023-08-14T05:28:24.980Z,8.63
2023-08-14T05:30:51.477Z,4.15
2023-08-14T05:33:18.041Z,5.60
2023-08-14T05:35:44.543Z,11.05
2023-08-14T05:38:11.064Z,6.87
2023-08-14T05:40:37.587Z,9.20
2023-08-14T05:43:07.993Z,7.47
2023-08-14T05:45:44.001Z,9.80
2023-08-14T05:48:11.610Z,11.68
2023-08-14T05:50:38.708Z,8.90
2023-08-14T05:53:06.111Z,9.65
2023-08-14T05:55:37.604Z,10.00
2023-08-14T05:58:04.538Z,9.40
2023-08-14T06:00:31.565Z,10.82
2023-08-14T06:02:58.415Z,10.00
2023-08-14T06:05:25.401Z,9.85
2023-08-14T06:07:53.673Z,11.13
2023-08-14T06:10:20.984Z,9.73
2023-08-14T06:12:50.134Z,16.10
2023-08-14T06:15:18.900Z,13.10
2023-08-14T06:17:45.537Z,13.82
2023-08-14T06:20:12.605Z,14.15
2023-08-14T06:22:45.011Z,13.23
2023-08-14T06:25:15.318Z,10.80
2023-08-14T06:27:42.440Z,10.37
2023-08-14T06:30:11.930Z,11.90
2023-08-14T06:32:39.333Z,11.27
2023-08-14T06:35:07.196Z,10.38
2023-08-14T06:37:34.012Z,11.23
2023-08-14T06:40:00.571Z,13.83
2023-08-14T06:42:27.185Z,10.77
2023-08-14T06:44:53.733Z,12.32
2023-08-14T06:47:20.327Z,9.57
2023-08-14T06:49:46.827Z,7.10
2023-08-14T06:52:14.840Z,9.30
2023-08-14T06:54:41.457Z,11.10
2023-08-14T06:57:09.103Z,9.18
2023-08-14T06:59:36.205Z,9.60
2023-08-14T07:02:02.926Z,10.15
2023-08-14T07:04:29.532Z,8.10
2023-08-14T07:06:56.087Z,10.18
2023-08-14T07:09:22.974Z,9.93
2023-08-14T07:11:49.925Z,10.60
2023-08-14T07:14:16.477Z,9.85
2023-08-14T07:16:43.200Z,8.60
2023-08-14T07:19:09.990Z,11.65
2023-08-14T07:21:36.586Z,15.30
2023-08-14T07:24:03.434Z,11.82
2023-08-14T07:26:30.402Z,10.18
2023-08-14T07:28:56.884Z,11.93
2023-08-14T07:31:24.041Z,11.13
2023-08-14T07:33:50.585Z,9.80
2023-08-14T07:36:17.214Z,10.88
2023-08-14T07:38:43.746Z,13.30
2023-08-14T07:41:10.322Z,8.47
2023-08-14T07:43:36.763Z,7.18
2023-08-14T07:46:03.231Z,9.75
2023-08-14T07:48:29.788Z,9.82
2023-08-14T07:50:56.294Z,9.90
2023-08-14T07:53:22.915Z,9.30
2023-08-14T07:55:49.966Z,9.13
2023-08-14T07:58:17.421Z,7.00
2023-08-14T08:00:44.662Z,9.95
2023-08-14T08:03:11.218Z,7.40
2023-08-14T08:05:38.291Z,6.70
2023-08-14T08:08:05.694Z,10.45
2023-08-14T08:10:32.544Z,9.35
2023-08-14T08:12:59.056Z,8.43
2023-08-14T08:15:25.679Z,6.95
2023-08-14T08:17:52.370Z,7.37
2023-08-14T08:20:19.332Z,11.77
2023-08-14T08:22:45.906Z,7.75
2023-08-14T08:25:12.526Z,4.82
2023-08-14T08:27:39.152Z,7.53
2023-08-14T08:30:06.237Z,7.53
2023-08-14T08:32:32.850Z,5.82
2023-08-14T08:34:59.569Z,5.63
2023-08-14T08:37:26.179Z,5.25
2023-08-14T08:39:53.859Z,5.50
2023-08-14T08:42:21.244Z,5.33
2023-08-14T08:44:50.797Z,4.85
2023-08-14T08:47:22.747Z,6.38
2023-08-14T08:49:49.688Z,5.25
2023-08-14T08:52:16.799Z,5.45
2023-08-14T08:54:43.738Z,4.93
2023-08-14T08:57:10.307Z,5.88
2023-08-14T08:59:39.432Z,4.93
2023-08-14T09:02:05.957Z,5.45
2023-08-14T09:04:32.576Z,6.00
2023-08-14T09:06:59.094Z,7.83
2023-08-14T09:09:25.671Z,5.93
2023-08-14T09:11:52.237Z,7.28
2023-08-14T09:14:18.978Z,4.30
2023-08-14T09:16:45.822Z,5.32
2023-08-14T09:19:16.034Z,4.10
2023-08-14T09:21:44.881Z,3.45
2023-08-14T09:24:13.754Z,3.92
2023-08-14T09:26:43.805Z,4.60
2023-08-14T09:29:13.057Z,3.88
2023-08-14T09:31:44.473Z,6.00
2023-08-14T09:34:17.902Z,5.13
2023-08-14T09:36:44.837Z,3.35
2023-08-14T09:39:11.733Z,3.78
2023-08-14T09:41:38.229Z,9.93
2023-08-14T09:44:05.108Z,6.13
2023-08-14T09:46:32.492Z,5.68
2023-08-14T09:48:59.144Z,5.20
2023-08-14T09:51:25.703Z,6.10
2023-08-14T09:53:57.575Z,5.90
2023-08-14T09:56:25.184Z,6.60
2023-08-14T09:58:53.838Z,5.05
2023-08-14T10:01:22.232Z,6.88
2023-08-14T10:03:53.739Z,4.43
2023-08-14T10:06:25.706Z,4.82
2023-08-14T10:08:56.730Z,4.47
2023-08-14T10:11:27.506Z,6.85
2023-08-14T10:13:58.343Z,6.85
2023-08-14T10:16:28.838Z,6.95
2023-08-14T10:18:57.410Z,6.70
2023-08-14T10:21:31.269Z,5.47
2023-08-14T10:24:00.464Z,6.03
2023-08-14T10:26:28.197Z,4.70
2023-08-14T10:28:57.217Z,4.22
2023-08-14T10:31:24.231Z,4.50
2023-08-14T10:33:51.249Z,5.63
2023-08-14T10:36:21.924Z,7.22
2023-08-14T10:41:22.884Z,5.82
2023-08-14T10:43:51.747Z,7.53
2023-08-14T10:46:18.735Z,3.83
2023-08-14T10:48:49.740Z,4.43
2023-08-14T10:51:21.732Z,4.13
2023-08-14T10:53:48.654Z,5.20
2023-08-14T10:56:15.277Z,5.20
2023-08-14T10:58:48.933Z,6.33
2023-08-14T11:01:16.123Z,3.92
2023-08-14T11:03:55.892Z,4.75
2023-08-14T11:07:00.929Z,3.92
2023-08-14T11:09:32.152Z,2.70
2023-08-14T11:12:02.985Z,6.17
2023-08-14T11:14:29.491Z,3.95
2023-08-14T11:16:57.191Z,4.07
2023-08-14T11:19:23.737Z,2.10
2023-08-14T11:21:50.425Z,5.50
2023-08-14T11:24:17.399Z,3.50
2023-08-14T11:26:43.872Z,2.97
2023-08-14T11:29:10.357Z,3.70
2023-08-14T11:31:42.068Z,1.85
2023-08-14T11:34:15.666Z,3.33
2023-08-14T11:37:06.416Z,2.73
2023-08-14T11:39:34.677Z,2.03
2023-08-14T11:42:03.088Z,2.95
2023-08-14T11:44:29.705Z,4.68
2023-08-14T11:46:57.538Z,3.05
2023-08-14T11:49:25.360Z,3.40
2023-08-14T11:51:53.299Z,1.80
2023-08-14T11:54:20.157Z,4.43
2023-08-14T11:56:48.622Z,3.05
2023-08-14T11:59:16.946Z,4.30
2023-08-14T12:01:43.530Z,3.97
2023-08-14T12:04:11.393Z,3.13
2023-08-14T12:06:37.949Z,2.75
2023-08-14T12:09:09.011Z,3.28
2023-08-14T12:11:38.158Z,2.97
2023-08-14T12:14:06.475Z,2.03
2023-08-14T12:16:33.100Z,4.35
2023-08-14T12:18:59.644Z,5.68
2023-08-14T12:21:30.005Z,3.63
2023-08-14T12:23:56.550Z,3.08
2023-08-14T12:26:23.666Z,3.77
2023-08-14T12:28:50.396Z,3.40
2023-08-14T12:31:16.951Z,4.03
2023-08-14T12:33:45.196Z,2.00
2023-08-14T12:36:13.632Z,2.13
2023-08-14T12:38:40.138Z,4.33
2023-08-14T12:41:06.860Z,5.32
2023-08-14T12:43:40.371Z,1.77
2023-08-14T12:46:10.634Z,2.95
2023-08-14T12:48:37.534Z,4.32
2023-08-14T12:51:04.808Z,2.43
2023-08-14T12:53:31.429Z,3.75
2023-08-14T12:56:03.573Z,1.88
2023-08-14T12:58:31.106Z,3.95
2023-08-14T13:01:03.814Z,3.05
2023-08-14T13:03:36.526Z,2.70
2023-08-14T13:06:05.442Z,3.63
2023-08-14T13:08:32.105Z,2.60
2023-08-14T13:10:58.643Z,2.70
2023-08-14T13:13:28.130Z,3.17
2023-08-14T13:15:55.582Z,5.40
2023-08-14T13:18:22.805Z,1.80
2023-08-14T13:20:49.717Z,3.22
2023-08-14T13:23:17.002Z,3.88
2023-08-14T13:25:43.736Z,4.57
2023-08-14T13:28:10.453Z,5.27
2023-08-14T13:30:37.238Z,4.80
2023-08-14T13:33:04.249Z,3.67
2023-08-14T13:35:31.432Z,2.83
2023-08-14T13:37:59.402Z,3.10
2023-08-14T13:40:25.891Z,2.27
2023-08-14T13:42:52.533Z,3.05
2023-08-14T13:45:19.472Z,3.33
2023-08-14T13:47:53.859Z,2.00
2023-08-14T13:50:32.477Z,3.70
2023-08-14T13:53:04.055Z,3.67
2023-08-14T13:55:34.170Z,4.50
2023-08-14T13:58:01.625Z,3.17
2023-08-14T14:00:30.349Z,2.30
2023-08-14T14:02:58.860Z,2.65
2023-08-14T14:05:25.958Z,4.33
2023-08-14T14:07:55.810Z,3.33
2023-08-14T14:10:24.984Z,2.85
2023-08-14T14:15:21.754Z,4.43
2023-08-14T14:17:48.600Z,1.90
2023-08-14T14:20:16.825Z,2.92
2023-08-14T14:22:43.692Z,5.75
2023-08-14T14:25:10.938Z,3.17
2023-08-14T14:27:38.630Z,2.63
2023-08-14T14:30:05.915Z,3.63
2023-08-14T14:32:32.366Z,2.78
2023-08-14T14:34:58.979Z,3.35
2023-08-14T14:37:25.479Z,6.28
2023-08-14T14:39:51.902Z,3.40
2023-08-14T14:42:19.984Z,3.37
2023-08-14T14:44:48.146Z,2.03
2023-08-14T14:47:15.051Z,2.90
2023-08-14T14:49:41.577Z,2.20
2023-08-14T14:52:08.072Z,3.00
2023-08-14T14:54:34.576Z,2.77
2023-08-14T14:57:01.021Z,4.88
2023-08-14T14:59:27.516Z,2.47
2023-08-14T15:01:53.989Z,2.97
2023-08-14T15:04:20.442Z,3.05
2023-08-14T15:06:46.919Z,3.80
2023-08-14T15:09:13.621Z,3.95
2023-08-14T15:11:40.135Z,3.15
2023-08-14T15:14:06.570Z,3.60
2023-08-14T15:16:33.737Z,2.67
2023-08-14T15:19:00.463Z,3.57
2023-08-14T15:21:26.937Z,3.47
2023-08-14T15:23:53.469Z,3.55
2023-08-14T15:26:20.645Z,3.97
2023-08-14T15:28:47.103Z,2.08
2023-08-14T15:31:13.721Z,3.07
2023-08-14T15:33:40.319Z,3.53
2023-08-14T15:36:06.794Z,1.92
2023-08-14T15:38:33.296Z,4.30
2023-08-14T15:40:59.860Z,1.75
2023-08-14T15:43:26.843Z,3.63
2023-08-14T15:46:04.301Z,3.13
2023-08-14T15:48:31.062Z,2.25
2023-08-14T15:50:57.587Z,3.30
2023-08-14T15:53:24.069Z,2.97
2023-08-14T15:55:50.717Z,2.17
2023-08-14T15:58:17.572Z,3.67
2023-08-14T16:00:45.156Z,3.90
2023-08-14T16:03:12.275Z,3.47
2023-08-14T16:05:39.266Z,4.35
2023-08-14T16:08:06.540Z,3.67
2023-08-14T16:10:33.025Z,5.95
2023-08-14T16:12:59.570Z,3.63
2023-08-14T16:15:26.076Z,5.95
2023-08-14T16:17:52.651Z,3.38
2023-08-14T16:20:19.174Z,4.53
2023-08-14T16:22:45.686Z,4.05
2023-08-14T16:25:12.231Z,4.65
2023-08-14T16:27:38.749Z,4.13
2023-08-14T16:30:05.746Z,4.10
2023-08-14T16:32:32.335Z,3.93
2023-08-14T16:34:59.343Z,2.53
2023-08-14T16:37:25.928Z,3.33
2023-08-14T16:39:52.415Z,4.72
2023-08-14T16:42:18.992Z,2.70
2023-08-14T16:44:45.562Z,1.90
2023-08-14T16:47:11.989Z,1.58
2023-08-14T16:49:38.436Z,2.08
2023-08-14T16:52:05.221Z,3.05
2023-08-14T16:54:31.629Z,3.10
2023-08-14T16:56:58.121Z,4.40
2023-08-14T16:59:24.624Z,2.47
2023-08-14T17:01:51.127Z,1.83
2023-08-14T17:04:17.683Z,3.33
2023-08-14T17:06:44.251Z,2.15
2023-08-14T17:09:14.952Z,2.50
2023-08-14T17:11:41.959Z,18.67
2023-08-14T17:14:08.537Z,2.65
2023-08-14T17:16:35.168Z,3.35
2023-08-14T17:19:01.782Z,4.68
2023-08-14T17:21:28.224Z,4.07
2023-08-14T17:23:54.697Z,2.22
2023-08-14T17:26:21.147Z,3.20
2023-08-14T17:28:47.619Z,1.73
2023-08-14T17:31:15.813Z,2.75
2023-08-14T17:33:42.284Z,3.60
2023-08-14T17:36:08.821Z,3.83
2023-08-14T17:38:35.292Z,3.72
2023-08-14T17:41:01.940Z,3.55
2023-08-14T17:43:28.487Z,2.85
2023-08-14T17:45:56.270Z,2.40
2023-08-14T17:48:22.729Z,2.70
2023-08-14T17:50:51.736Z,2.42
2023-08-14T17:53:19.086Z,4.03
2023-08-14T17:55:45.568Z,3.20
2023-08-14T17:58:12.174Z,2.47
2023-08-14T18:00:38.665Z,6.57
2023-08-14T18:03:05.504Z,2.58
2023-08-14T18:05:32.048Z,2.83
2023-08-14T18:07:58.482Z,2.08
2023-08-14T18:10:24.941Z,2.73
2023-08-14T18:12:51.331Z,2.55
2023-08-14T18:15:18.860Z,2.90
2023-08-14T18:17:45.344Z,2.70
2023-08-14T18:20:12.003Z,5.72
2023-08-14T18:22:38.593Z,2.83
2023-08-14T18:25:05.406Z,2.90
2023-08-14T18:27:32.082Z,2.58
2023-08-14T18:29:58.598Z,3.25
2023-08-14T18:32:25.182Z,3.00
2023-08-14T18:34:51.939Z,2.57
2023-08-14T18:37:18.713Z,3.85
2023-08-14T18:39:45.383Z,3.65
2023-08-14T18:42:11.901Z,1.85
2023-08-14T18:44:38.345Z,2.65
2023-08-14T18:47:04.961Z,3.53
2023-08-14T18:49:32.764Z,2.97
2023-08-14T18:51:59.260Z,1.45
2023-08-14T18:54:26.046Z,1.83
2023-08-14T18:56:52.840Z,3.35
2023-08-14T18:59:23.683Z,5.17
2023-08-14T19:01:51.497Z,4.53
2023-08-14T19:04:25.650Z,4.25
2023-08-14T19:06:59.837Z,5.22
2023-08-14T19:09:26.312Z,2.38
2023-08-14T19:11:52.804Z,3.63
2023-08-14T19:14:19.413Z,4.63
2023-08-14T19:16:45.956Z,3.25
2023-08-14T19:19:12.390Z,4.07
2023-08-14T19:21:38.863Z,5.97
2023-08-14T19:24:05.790Z,4.23
2023-08-14T19:26:32.304Z,2.70
2023-08-14T19:29:01.312Z,4.95
2023-08-14T19:31:27.862Z,2.70
2023-08-14T19:33:59.367Z,4.30
2023-08-14T19:36:26.329Z,1.80
2023-08-14T19:38:52.751Z,6.35
2023-08-14T19:41:19.161Z,5.05
2023-08-14T19:43:45.665Z,5.25
2023-08-14T19:46:12.143Z,3.60
2023-08-14T19:48:38.580Z,3.83
2023-08-14T19:51:05.198Z,4.25
2023-08-14T19:53:31.745Z,1.33
2023-08-14T19:55:58.320Z,4.65
2023-08-14T19:58:24.792Z,3.72
2023-08-14T20:00:51.306Z,2.40
2023-08-14T20:03:17.837Z,2.90
2023-08-14T20:05:48.896Z,4.35
2023-08-14T20:08:15.803Z,4.97
2023-08-14T20:10:42.848Z,6.88
2023-08-14T20:13:09.484Z,2.27
2023-08-14T20:15:42.437Z,3.63
2023-08-14T20:18:08.938Z,4.18
2023-08-14T20:20:39.136Z,3.28
2023-08-14T20:23:05.591Z,3.42
2023-08-14T20:25:32.102Z,2.37
2023-08-14T20:27:58.772Z,4.53
2023-08-14T20:30:25.303Z,3.33
2023-08-14T20:32:51.820Z,3.38
2023-08-14T20:35:18.482Z,2.60
2023-08-14T20:37:45.019Z,4.43
2023-08-14T20:40:11.977Z,2.55
2023-08-14T20:42:38.756Z,2.65
2023-08-14T20:45:05.828Z,5.72
2023-08-14T20:47:32.270Z,7.07
2023-08-14T20:49:58.942Z,8.07
2023-08-14T20:52:25.463Z,2.95
2023-08-14T20:54:52.480Z,4.82
2023-08-14T20:57:19.695Z,4.15
2023-08-14T20:59:46.349Z,1.90
2023-08-14T21:02:12.923Z,4.07
2023-08-14T21:04:39.388Z,3.97
2023-08-14T21:07:06.154Z,5.03
2023-08-14T21:09:32.649Z,6.40
2023-08-14T21:11:59.900Z,3.60
2023-08-14T21:14:26.421Z,7.10
2023-08-14T21:16:52.945Z,2.55
2023-08-14T21:19:19.460Z,1.88
2023-08-14T21:21:46.900Z,3.45
2023-08-14T21:24:13.656Z,4.30
2023-08-14T21:26:40.228Z,4.47
2023-08-14T21:29:06.760Z,3.70
2023-08-14T21:31:34.333Z,7.72
2023-08-14T21:34:01.113Z,2.72
2023-08-14T21:36:27.644Z,4.07
2023-08-14T21:38:54.105Z,4.37
2023-08-14T21:41:20.603Z,8.30
2023-08-14T21:43:47.153Z,6.60
2023-08-14T21:46:13.743Z,3.13
2023-08-14T21:48:40.273Z,4.75
2023-08-14T21:51:06.845Z,3.50
2023-08-14T21:53:33.236Z,4.00
2023-08-14T21:55:59.684Z,4.38
2023-08-14T21:58:26.121Z,4.75
2023-08-14T22:00:52.675Z,2.45
2023-08-14T22:03:19.234Z,5.50
2023-08-14T22:05:45.750Z,3.65
2023-08-14T22:08:12.307Z,4.68
2023-08-14T22:10:38.796Z,4.78
2023-08-14T22:13:05.300Z,4.35
2023-08-14T22:15:44.548Z,5.93
2023-08-14T22:18:13.670Z,3.85
2023-08-14T22:20:40.910Z,2.25
2023-08-14T22:23:07.401Z,5.95
2023-08-14T22:25:33.898Z,7.05
2023-08-14T22:28:00.412Z,4.23
2023-08-14T22:30:26.898Z,4.00
2023-08-14T22:32:53.343Z,11.88
2023-08-14T22:35:19.813Z,7.78
2023-08-14T22:37:46.243Z,4.95
2023-08-14T22:40:12.675Z,5.30
2023-08-14T22:42:39.169Z,7.25
2023-08-14T22:45:06.503Z,5.55
2023-08-14T22:47:32.998Z,8.95
2023-08-14T22:49:59.524Z,8.98
2023-08-14T22:52:26.949Z,4.50
2023-08-14T22:54:53.341Z,10.00
2023-08-14T22:57:20.051Z,6.75
2023-08-14T22:59:46.740Z,7.93
2023-08-14T23:02:13.648Z,9.43
2023-08-14T23:04:40.099Z,9.27
2023-08-14T23:07:06.642Z,6.07
2023-08-14T23:09:33.147Z,4.32
2023-08-14T23:12:01.773Z,9.27
2023-08-14T23:14:28.262Z,7.35
2023-08-14T23:16:54.769Z,9.27
2023-08-14T23:19:21.552Z,6.28
2023-08-14T23:21:48.074Z,6.15
2023-08-14T23:24:14.812Z,7.57
2023-08-14T23:26:41.262Z,8.70
2023-08-14T23:29:07.796Z,6.67
2023-08-14T23:31:34.346Z,5.20
2023-08-14T23:34:00.960Z,2.92
2023-08-14T23:36:27.376Z,3.80
2023-08-14T23:38:53.946Z,4.57
2023-08-14T23:41:20.377Z,3.50
2023-08-14T23:43:46.814Z,4.45
2023-08-14T23:46:13.663Z,6.32
2023-08-14T23:48:40.149Z,4.63
2023-08-14T23:51:06.678Z,4.88
2023-08-14T23:53:33.150Z,6.80
2023-08-14T23:55:59.670Z,11.27
2023-08-14T23:58:26.134Z,3.85
